Terminal Aerodrome Forecast
Issued by NWS

Current Version | Previous Version | Text Only | Print | Product List | Glossary Off
Versions: 1 2 3 4 5 6 7 8 9 10 11 12 13 14 15 16 17

000
FTUS41 KPBZ 301000 AAB
TAFMGW
TAF AMD
KMGW 301040Z 3011/3106 22008G16KT 5SM -DZ BR BKN007
     FM301100 25010G18KT P6SM BKN012
     FM301400 27010G20KT P6SM BKN035
     FM310000 26005KT P6SM BKN050=

USA.gov is the U.S. government's official web portal to all federal, state and local government web resources and services.